Time;durP1;ratioP1;P1;durP2;ratioP2;P2;SDS_P1;SDS_P2;PMS_P1;PMS_P2;Temp;Humidity;BMP_temperature;BMP_pressure;BME280_temperature;BME280_humidity;BME280_pressure;Samples;Min_cycle;Max_cycle;Signal;HPM_P1;HPM_P2
2022/07/18 05:00:36;;;;;;;2.80;2.10;;;19.50;97.20;;;;;;1713673;28;20642;-70
2022/07/18 05:01:26;;;;;;;2.60;2.40;;;19.50;97.20;;;;;;1713845;28;20198;-70
2022/07/18 05:02:18;;;;;;;2.33;2.13;;;19.50;97.20;;;;;;1713890;28;20293;-70
2022/07/18 05:03:09;;;;;;;2.20;2.00;;;19.50;97.20;;;;;;1713927;28;20224;-70
2022/07/18 05:04:01;;;;;;;4.40;2.30;;;19.50;97.20;;;;;;1713870;28;20229;-70
2022/07/18 05:04:51;;;;;;;2.67;2.47;;;19.50;97.20;;;;;;1713888;28;20216;-70
2022/07/18 05:05:44;;;;;;;2.47;2.27;;;19.50;97.20;;;;;;1713911;28;20292;-70
2022/07/18 05:06:34;;;;;;;3.38;2.60;;;19.60;97.20;;;;;;1713540;28;20206;-70
2022/07/18 05:07:26;;;;;;;3.17;1.97;;;19.60;97.20;;;;;;1714005;28;20204;-70
2022/07/18 05:08:18;;;;;;;3.28;2.00;;;19.60;97.20;;;;;;1713730;28;20198;-70
2022/07/18 05:09:10;;;;;;;2.80;2.35;;;19.60;97.20;;;;;;1713968;28;20678;-70
2022/07/18 05:10:03;;;;;;;2.08;1.98;;;19.60;97.20;;;;;;1713960;28;20205;-70
2022/07/18 05:10:55;;;;;;;2.63;1.98;;;19.60;97.20;;;;;;1713868;28;20379;-71
2022/07/18 05:11:46;;;;;;;4.10;2.55;;;19.70;97.20;;;;;;1713948;28;20212;-70
2022/07/18 05:12:39;;;;;;;2.97;2.40;;;19.70;97.20;;;;;;1713912;28;20292;-70
2022/07/18 05:13:30;;;;;;;2.35;2.00;;;19.70;97.20;;;;;;1713889;28;20206;-70
2022/07/18 05:14:21;;;;;;;2.23;1.80;;;19.70;97.20;;;;;;1713487;28;20297;-71
2022/07/18 05:15:14;;;;;;;4.82;2.03;;;19.70;97.20;;;;;;1713812;28;20212;-70
2022/07/18 05:16:08;;;;;;;2.05;1.85;;;19.80;97.20;;;;;;1713877;28;20704;-70
2022/07/18 05:16:59;;;;;;;3.97;2.28;;;19.70;97.20;;;;;;1713564;28;20197;-70
2022/07/18 05:17:51;;;;;;;3.03;2.20;;;19.80;97.20;;;;;;1713532;28;20201;-69
2022/07/18 05:18:42;;;;;;;3.10;2.50;;;19.80;97.20;;;;;;1713914;28;20576;-70
2022/07/18 05:19:33;;;;;;;2.30;2.10;;;19.80;97.20;;;;;;1713850;28;20231;-70
2022/07/18 05:20:27;;;;;;;5.82;2.10;;;19.80;97.20;;;;;;1713965;28;20684;-70
2022/07/18 05:21:18;;;;;;;2.45;2.17;;;19.80;97.20;;;;;;1713875;28;20566;-70
2022/07/18 05:22:10;;;;;;;3.60;2.47;;;19.80;97.20;;;;;;1713939;28;20202;-70
2022/07/18 05:23:00;;;;;;;3.33;2.42;;;19.80;97.20;;;;;;1713854;28;20944;-70
2022/07/18 05:23:52;;;;;;;2.43;2.10;;;19.80;97.20;;;;;;1713887;28;20732;-70
2022/07/18 05:24:43;;;;;;;3.13;2.75;;;19.80;97.20;;;;;;1713814;28;20230;-71
2022/07/18 05:25:35;;;;;;;2.30;2.10;;;19.80;97.20;;;;;;1713882;28;20198;-71
2022/07/18 05:26:25;;;;;;;4.25;2.30;;;19.80;97.20;;;;;;1713753;28;20457;-70
2022/07/18 05:27:17;;;;;;;5.50;2.77;;;19.80;97.20;;;;;;1713608;28;20236;-71
2022/07/18 05:28:08;;;;;;;2.60;2.40;;;19.90;97.20;;;;;;1713516;28;20202;-71
2022/07/18 05:29:00;;;;;;;3.53;2.40;;;19.90;97.20;;;;;;1713865;28;20231;-71
2022/07/18 05:29:51;;;;;;;2.10;1.90;;;19.90;97.20;;;;;;1713568;28;20665;-71
2022/07/18 05:30:43;;;;;;;2.93;2.43;;;19.90;97.20;;;;;;1713601;28;20614;-70
2022/07/18 05:31:35;;;;;;;2.78;2.15;;;19.90;97.20;;;;;;1713913;28;20256;-71
2022/07/18 05:32:27;;;;;;;2.15;1.95;;;19.90;97.20;;;;;;1713983;28;20202;-70
2022/07/18 05:33:18;;;;;;;2.80;2.20;;;19.90;97.20;;;;;;1714282;28;20669;-70
2022/07/18 05:34:10;;;;;;;2.27;2.07;;;20.00;97.20;;;;;;1714229;28;20561;-70
2022/07/18 05:35:01;;;;;;;2.75;2.20;;;20.00;97.20;;;;;;1713853;28;20457;-71
2022/07/18 05:35:52;;;;;;;3.03;2.23;;;20.00;97.20;;;;;;1713805;28;20297;-70
2022/07/18 05:36:43;;;;;;;2.35;2.08;;;20.00;97.20;;;;;;1713749;28;20945;-71
2022/07/18 05:37:37;;;;;;;3.23;2.70;;;20.00;97.20;;;;;;1713878;28;20657;-71
2022/07/18 05:38:27;;;;;;;2.40;2.20;;;20.10;97.20;;;;;;1713858;28;20264;-71
2022/07/18 05:39:19;;;;;;;3.97;2.27;;;20.10;97.20;;;;;;1713858;28;20201;-71
2022/07/18 05:40:12;;;;;;;2.95;2.20;;;20.10;97.20;;;;;;1713854;28;20209;-71
2022/07/18 05:41:04;;;;;;;3.03;2.53;;;20.10;97.20;;;;;;1713552;28;20245;-71
2022/07/18 05:41:55;;;;;;;2.75;2.05;;;20.20;97.20;;;;;;1713751;28;20206;-70
2022/07/18 05:42:47;;;;;;;3.67;2.33;;;20.20;97.20;;;;;;1713807;28;20225;-70
2022/07/18 05:43:37;;;;;;;2.63;2.10;;;20.20;97.20;;;;;;1713798;28;20288;-70
2022/07/18 05:44:29;;;;;;;4.37;3.10;;;20.20;97.20;;;;;;1714298;28;20287;-70
2022/07/18 05:45:21;;;;;;;3.90;2.28;;;20.20;97.20;;;;;;1715087;28;20444;-70
2022/07/18 05:46:12;;;;;;;4.75;2.50;;;20.30;97.20;;;;;;1715035;28;20216;-71
2022/07/18 05:47:05;;;;;;;2.67;2.25;;;20.30;97.20;;;;;;1714810;28;20198;-70
2022/07/18 05:47:56;;;;;;;4.88;2.33;;;20.30;97.20;;;;;;1715029;28;20216;-71
2022/07/18 05:48:47;;;;;;;2.20;2.00;;;20.30;97.20;;;;;;1714987;28;20260;-70
2022/07/18 05:49:39;;;;;;;2.53;2.00;;;20.40;97.20;;;;;;1715069;28;20268;-70
2022/07/18 05:50:30;;;;;;;6.03;2.30;;;20.40;97.20;;;;;;1715067;28;20452;-70
2022/07/18 05:51:22;;;;;;;5.93;2.70;;;20.40;97.20;;;;;;1715072;28;20197;-70
2022/07/18 05:52:13;;;;;;;2.35;2.15;;;20.50;97.20;;;;;;1714983;28;20452;-71
2022/07/18 05:53:04;;;;;;;2.47;2.27;;;20.50;97.20;;;;;;1715026;28;20198;-70
2022/07/18 05:53:55;;;;;;;3.72;2.67;;;20.50;97.20;;;;;;1712387;28;20217;-70
2022/07/18 05:54:47;;;;;;;2.50;2.10;;;20.50;97.20;;;;;;1710970;28;20321;-70
2022/07/18 05:55:38;;;;;;;2.25;2.05;;;20.60;97.20;;;;;;1712011;28;20688;-71
2022/07/18 05:56:30;;;;;;;3.17;2.43;;;20.60;97.20;;;;;;1714950;28;20672;-71
2022/07/18 05:57:20;;;;;;;2.75;2.50;;;20.60;97.20;;;;;;1714585;28;20700;-71
2022/07/18 05:58:12;;;;;;;5.57;2.20;;;20.60;97.20;;;;;;1714737;28;20651;-71
2022/07/18 05:59:04;;;;;;;3.05;2.22;;;20.70;97.20;;;;;;1714824;28;20201;-70
2022/07/18 05:59:56;;;;;;;2.90;2.50;;;20.70;97.20;;;;;;1714783;28;20239;-70
2022/07/18 06:00:46;;;;;;;3.50;1.92;;;20.70;97.20;;;;;;1714935;28;20206;-70
2022/07/18 06:01:38;;;;;;;2.40;2.20;;;20.70;97.20;;;;;;1711648;28;20289;-71
2022/07/18 06:02:30;;;;;;;3.03;2.20;;;20.80;97.20;;;;;;1714189;28;20217;-70
2022/07/18 06:03:22;;;;;;;2.40;2.20;;;20.80;97.20;;;;;;1714892;28;20255;-71
2022/07/18 06:04:13;;;;;;;2.30;1.92;;;20.80;97.20;;;;;;1714840;28;20209;-71
2022/07/18 06:05:07;;;;;;;2.38;2.15;;;20.80;97.20;;;;;;1714924;28;20213;-71
2022/07/18 06:05:57;;;;;;;2.08;1.80;;;20.90;97.20;;;;;;1714771;28;20225;-71
2022/07/18 06:06:50;;;;;;;2.17;1.87;;;20.90;97.20;;;;;;1714154;28;20289;-71
2022/07/18 06:07:41;;;;;;;2.13;1.90;;;20.90;97.20;;;;;;1714917;28;20662;-71
2022/07/18 06:08:33;;;;;;;3.90;2.10;;;20.90;97.20;;;;;;1714809;28;20628;-70
2022/07/18 06:09:23;;;;;;;3.63;2.08;;;21.00;97.20;;;;;;1714814;28;20228;-71
2022/07/18 06:10:15;;;;;;;2.43;2.20;;;21.00;97.20;;;;;;1714805;28;20328;-71
2022/07/18 06:11:07;;;;;;;3.28;2.00;;;21.00;97.20;;;;;;1714234;28;20448;-71
2022/07/18 06:12:00;;;;;;;2.60;1.60;;;21.00;97.20;;;;;;1714250;28;20196;-70
2022/07/18 06:12:51;;;;;;;3.80;2.10;;;21.00;97.20;;;;;;1714761;28;20214;-71
2022/07/18 06:13:43;;;;;;;3.05;1.92;;;21.10;97.20;;;;;;1714903;28;20202;-71
2022/07/18 06:14:35;;;;;;;1.85;1.67;;;21.10;97.20;;;;;;1714651;28;20248;-71
2022/07/18 06:15:27;;;;;;;3.45;3.10;;;21.10;97.20;;;;;;1714753;28;20202;-71
2022/07/18 06:16:17;;;;;;;4.70;3.30;;;21.20;97.20;;;;;;1714727;28;20202;-71
2022/07/18 06:17:09;;;;;;;3.20;2.50;;;21.20;97.20;;;;;;1714601;28;20280;-71
2022/07/18 06:18:01;;;;;;;3.53;2.20;;;21.20;97.20;;;;;;1714751;28;20210;-71
2022/07/18 06:18:53;;;;;;;4.13;2.60;;;21.20;97.20;;;;;;1714872;28;20233;-70
2022/07/18 06:19:44;;;;;;;2.75;2.05;;;21.30;97.20;;;;;;1714821;28;20212;-71
2022/07/18 06:20:36;;;;;;;5.77;1.80;;;21.30;97.20;;;;;;1714814;28;20201;-70
2022/07/18 06:21:26;;;;;;;2.25;1.80;;;21.30;97.20;;;;;;1714847;28;20209;-70
2022/07/18 06:22:18;;;;;;;2.33;2.00;;;21.30;97.20;;;;;;1714555;28;20208;-70
2022/07/18 06:23:09;;;;;;;2.40;2.05;;;21.30;97.20;;;;;;1714549;28;20449;-70
2022/07/18 06:24:01;;;;;;;4.67;2.40;;;21.40;97.20;;;;;;1714488;28;20281;-70
2022/07/18 06:24:52;;;;;;;3.03;2.72;;;21.40;97.20;;;;;;1714719;28;20217;-71
2022/07/18 06:25:44;;;;;;;4.35;2.65;;;21.40;97.20;;;;;;1714815;28;20201;-70
2022/07/18 06:26:34;;;;;;;3.55;2.90;;;21.50;97.20;;;;;;1714356;28;20216;-71
2022/07/18 06:27:26;;;;;;;2.80;2.40;;;21.50;97.20;;;;;;1714712;28;20201;-71
2022/07/18 06:28:17;;;;;;;3.15;2.75;;;21.50;97.20;;;;;;1714560;28;20225;-70
2022/07/18 06:29:10;;;;;;;2.83;2.60;;;21.60;97.20;;;;;;1714729;28;20332;-70
2022/07/18 06:30:04;;;;;;;3.05;2.75;;;21.60;97.20;;;;;;1714680;28;20206;-70
2022/07/18 06:30:56;;;;;;;2.60;2.40;;;21.60;97.20;;;;;;1714701;28;20212;-71
2022/07/18 06:31:46;;;;;;;3.92;2.05;;;21.60;97.20;;;;;;1714773;28;20201;-71
2022/07/18 06:32:38;;;;;;;3.73;2.20;;;21.60;97.20;;;;;;1714661;28;20252;-71
2022/07/18 06:33:31;;;;;;;2.67;2.35;;;21.70;97.20;;;;;;1714723;28;20225;-71
2022/07/18 06:34:22;;;;;;;4.60;2.35;;;21.70;97.20;;;;;;1714709;28;20697;-71
2022/07/18 06:35:13;;;;;;;5.93;2.13;;;21.70;97.20;;;;;;1714661;28;20217;-70
2022/07/18 06:36:06;;;;;;;2.45;2.20;;;21.70;97.20;;;;;;1714604;28;20205;-71
2022/07/18 06:36:56;;;;;;;2.90;2.17;;;21.70;97.20;;;;;;1714366;28;20287;-71
2022/07/18 06:37:48;;;;;;;2.83;2.30;;;21.70;97.20;;;;;;1714691;28;20206;-71
2022/07/18 06:38:42;;;;;;;5.05;3.10;;;21.70;97.20;;;;;;1714610;28;20205;-70
2022/07/18 06:39:34;;;;;;;2.40;2.08;;;21.70;97.20;;;;;;1713975;28;20768;-71
2022/07/18 06:40:25;;;;;;;2.85;2.50;;;21.80;97.20;;;;;;1714729;28;20202;-71
2022/07/18 06:41:17;;;;;;;4.97;2.20;;;21.80;97.20;;;;;;1714607;28;20296;-71
2022/07/18 06:42:07;;;;;;;2.88;2.40;;;21.80;97.20;;;;;;1714695;28;20208;-70
2022/07/18 06:42:59;;;;;;;5.40;2.30;;;21.80;97.20;;;;;;1714591;28;20201;-71
2022/07/18 06:43:50;;;;;;;4.65;2.40;;;21.80;97.20;;;;;;1714687;28;20559;-71
2022/07/18 06:44:42;;;;;;;2.53;2.10;;;21.90;97.20;;;;;;1714485;28;20324;-71
2022/07/18 06:45:33;;;;;;;2.22;2.00;;;21.90;97.20;;;;;;1714667;28;20206;-70
2022/07/18 06:46:25;;;;;;;2.37;2.17;;;21.90;97.20;;;;;;1714568;28;20293;-70
2022/07/18 06:47:16;;;;;;;6.40;2.00;;;21.90;97.20;;;;;;1714265;28;20941;-71
2022/07/18 06:48:09;;;;;;;3.85;2.30;;;22.00;97.20;;;;;;1714625;28;20638;-70
2022/07/18 06:49:02;;;;;;;4.82;2.58;;;22.00;97.20;;;;;;1714594;28;20206;-70
2022/07/18 06:49:53;;;;;;;6.07;2.20;;;22.00;97.20;;;;;;1714577;28;20210;-70
2022/07/18 06:50:45;;;;;;;2.28;2.08;;;22.00;97.20;;;;;;1714695;28;20209;-71
2022/07/18 06:51:36;;;;;;;2.28;2.08;;;22.00;97.20;;;;;;1714666;28;20217;-70
2022/07/18 06:52:28;;;;;;;2.40;2.20;;;22.10;97.20;;;;;;1714725;28;20206;-71
2022/07/18 06:53:19;;;;;;;2.70;2.20;;;22.10;97.20;;;;;;1713184;28;20198;-70
2022/07/18 06:54:11;;;;;;;3.40;2.40;;;22.10;97.20;;;;;;1714513;28;20289;-70
2022/07/18 06:55:02;;;;;;;3.35;2.13;;;22.20;97.20;;;;;;1714245;28;20733;-71
2022/07/18 06:55:54;;;;;;;5.22;2.40;;;22.20;97.20;;;;;;1713989;28;20198;-70
2022/07/18 06:56:45;;;;;;;3.85;2.50;;;22.20;97.20;;;;;;1714043;28;20209;-71
2022/07/18 06:57:37;;;;;;;3.83;2.10;;;22.20;97.20;;;;;;1714577;28;20216;-70
2022/07/18 06:58:30;;;;;;;4.50;2.70;;;22.30;97.20;;;;;;1714512;28;20205;-70
2022/07/18 06:59:22;;;;;;;2.80;2.00;;;22.30;97.20;;;;;;1714428;28;20194;-70
2022/07/18 07:00:14;;;;;;;6.43;2.70;;;22.30;97.20;;;;;;1713982;28;20209;-70
2022/07/18 07:01:06;;;;;;;6.50;2.72;;;22.40;97.20;;;;;;1713899;28;20202;-70
2022/07/18 07:01:57;;;;;;;7.97;2.50;;;22.40;97.20;;;;;;1714324;28;20206;-71
2022/07/18 07:02:50;;;;;;;6.90;2.40;;;22.40;97.20;;;;;;1714241;28;20206;-70
2022/07/18 07:03:41;;;;;;;8.85;3.40;;;22.40;97.20;;;;;;1713877;28;20206;-71
2022/07/18 07:04:34;;;;;;;3.30;3.00;;;22.50;97.20;;;;;;1713853;28;20758;-71
2022/07/18 07:05:24;;;;;;;3.95;2.60;;;22.50;97.20;;;;;;1713119;28;20221;-70
2022/07/18 07:06:16;;;;;;;7.67;2.50;;;22.50;97.20;;;;;;1714396;28;20221;-70
2022/07/18 07:07:07;;;;;;;17.25;3.50;;;22.60;97.20;;;;;;1714303;28;20206;-70
2022/07/18 07:07:59;;;;;;;5.20;2.63;;;22.60;97.20;;;;;;1713856;28;20280;-70
2022/07/18 07:08:50;;;;;;;2.80;2.30;;;22.70;97.20;;;;;;1714498;28;20464;-70
2022/07/18 07:09:41;;;;;;;2.37;2.17;;;22.70;97.20;;;;;;1714482;28;20544;-70
2022/07/18 07:10:32;;;;;;;2.60;2.40;;;22.70;97.20;;;;;;1714538;28;20217;-70
2022/07/18 07:11:24;;;;;;;3.53;2.43;;;22.70;97.20;;;;;;1714325;28;20284;-70
2022/07/18 07:12:15;;;;;;;5.72;1.90;;;22.80;97.20;;;;;;1714426;28;20956;-70
2022/07/18 07:13:07;;;;;;;8.40;2.70;;;22.80;97.20;;;;;;1714202;28;20685;-71
2022/07/18 07:13:58;;;;;;;6.68;2.97;;;22.80;97.20;;;;;;1714188;28;20625;-70
2022/07/18 07:14:50;;;;;;;4.33;2.30;;;22.80;97.20;;;;;;1714160;28;20221;-70
2022/07/18 07:15:42;;;;;;;4.10;2.55;;;22.90;97.20;;;;;;1714298;28;20696;-70
2022/07/18 07:16:34;;;;;;;4.68;2.03;;;22.90;97.20;;;;;;1713946;28;20665;-71
2022/07/18 07:17:25;;;;;;;6.45;2.75;;;22.90;97.20;;;;;;1714284;28;20210;-71
2022/07/18 07:18:17;;;;;;;3.50;2.30;;;22.90;97.20;;;;;;1714352;28;20198;-70
2022/07/18 07:19:07;;;;;;;3.17;2.63;;;23.00;97.20;;;;;;1714152;28;20201;-71
2022/07/18 07:20:01;;;;;;;5.93;2.50;;;23.00;97.20;;;;;;1713737;28;20206;-71
2022/07/18 07:20:52;;;;;;;5.63;2.40;;;23.00;97.20;;;;;;1713679;28;20201;-70
2022/07/18 07:21:43;;;;;;;5.30;2.40;;;23.00;97.20;;;;;;1713805;28;20205;-70
2022/07/18 07:22:42;;;;;;;2.75;2.20;;;23.10;97.20;;;;;;1708154;28;20210;-71
2022/07/18 07:23:33;;;;;;;3.95;2.72;;;23.10;97.20;;;;;;1707698;28;20207;-70
2022/07/18 07:24:25;;;;;;;3.60;2.37;;;23.10;97.20;;;;;;1713365;28;20265;-70
2022/07/18 07:25:17;;;;;;;8.73;2.90;;;23.20;97.20;;;;;;1714249;28;20209;-71
2022/07/18 07:26:08;;;;;;;3.13;2.40;;;23.20;97.20;;;;;;1714294;28;20548;-71
2022/07/18 07:27:00;;;;;;;6.60;2.80;;;23.20;97.20;;;;;;1713482;28;20465;-71
2022/07/18 07:27:52;;;;;;;11.13;2.88;;;23.20;97.20;;;;;;1714335;28;20236;-71
2022/07/18 07:28:43;;;;;;;2.70;2.50;;;23.30;97.20;;;;;;1714387;28;20595;-70
2022/07/18 07:29:35;;;;;;;2.90;2.67;;;23.30;97.20;;;;;;1713818;28;20604;-70
2022/07/18 07:30:26;;;;;;;4.60;2.40;;;23.30;97.20;;;;;;1714211;28;20202;-70
2022/07/18 07:31:18;;;;;;;4.40;2.80;;;23.30;97.20;;;;;;1714136;28;20296;-70
2022/07/18 07:32:08;;;;;;;2.60;2.40;;;23.40;97.20;;;;;;1714113;28;20206;-71
2022/07/18 07:33:01;;;;;;;4.57;2.50;;;23.40;97.20;;;;;;1713507;28;20289;-70
2022/07/18 07:33:53;;;;;;;2.88;2.50;;;23.40;97.20;;;;;;1713394;28;20202;-70
2022/07/18 07:34:45;;;;;;;3.70;2.00;;;23.50;97.20;;;;;;1710514;28;20218;-71
2022/07/18 07:35:37;;;;;;;3.22;2.22;;;23.50;97.20;;;;;;1713147;28;20206;-70
2022/07/18 07:36:29;;;;;;;9.68;2.38;;;23.50;97.20;;;;;;1713876;28;20815;-71
2022/07/18 07:37:20;;;;;;;4.20;2.45;;;23.50;97.20;;;;;;1713827;28;20566;-71
2022/07/18 07:38:17;;;;;;;4.40;2.50;;;23.60;97.20;;;;;;1713504;28;20281;-70
2022/07/18 07:39:08;;;;;;;4.72;2.05;;;23.60;97.20;;;;;;1713876;28;20201;-70
2022/07/18 07:40:00;;;;;;;2.80;2.33;;;23.70;97.20;;;;;;1714261;28;20289;-70
2022/07/18 07:40:52;;;;;;;2.65;2.45;;;23.70;97.20;;;;;;1713989;28;20446;-71
2022/07/18 07:41:44;;;;;;;6.28;2.55;;;23.70;97.20;;;;;;1714353;28;20198;-70
2022/07/18 07:42:34;;;;;;;3.20;2.72;;;23.70;97.20;;;;;;1714336;28;20221;-71
2022/07/18 07:43:27;;;;;;;4.60;2.00;;;23.80;97.20;;;;;;1714271;28;20209;-70
2022/07/18 07:44:17;;;;;;;2.55;2.35;;;23.80;97.20;;;;;;1714072;28;20452;-70
2022/07/18 07:45:10;;;;;;;2.40;2.20;;;23.80;97.20;;;;;;1714288;28;20288;-70
2022/07/18 07:46:02;;;;;;;4.53;2.50;;;23.90;97.20;;;;;;1714259;28;20202;-71
2022/07/18 07:46:53;;;;;;;4.13;2.35;;;23.90;97.20;;;;;;1714052;28;20731;-70
2022/07/18 07:47:45;;;;;;;2.53;2.33;;;23.90;97.20;;;;;;1714358;28;20289;-71
2022/07/18 07:48:36;;;;;;;3.35;2.33;;;24.00;97.20;;;;;;1714280;28;20657;-70
2022/07/18 07:49:28;;;;;;;5.70;2.30;;;24.00;97.20;;;;;;1714237;28;20760;-70
2022/07/18 07:50:20;;;;;;;4.60;2.10;;;24.00;97.20;;;;;;1714184;28;20210;-72
2022/07/18 07:51:13;;;;;;;2.80;2.30;;;24.10;97.20;;;;;;1714003;28;20487;-71
2022/07/18 07:52:04;;;;;;;2.72;2.10;;;24.10;97.20;;;;;;1713990;28;20464;-71
2022/07/18 07:52:56;;;;;;;2.30;2.10;;;24.10;97.20;;;;;;1714179;28;20206;-71
2022/07/18 07:53:47;;;;;;;2.30;2.10;;;24.10;97.20;;;;;;1714269;28;20212;-70
2022/07/18 07:54:39;;;;;;;4.50;2.43;;;24.10;97.20;;;;;;1714049;28;20222;-70
2022/07/18 07:55:31;;;;;;;2.83;2.50;;;24.20;97.20;;;;;;1714183;28;20202;-71
2022/07/18 07:56:22;;;;;;;2.22;2.03;;;24.20;97.20;;;;;;1714152;28;20210;-71
2022/07/18 07:57:13;;;;;;;2.37;2.17;;;24.20;97.20;;;;;;1713872;28;20206;-71
2022/07/18 07:58:06;;;;;;;2.15;1.95;;;24.20;97.20;;;;;;1714079;28;20201;-71
2022/07/18 07:58:56;;;;;;;3.40;2.10;;;24.20;97.20;;;;;;1714131;28;20210;-71
2022/07/18 07:59:48;;;;;;;4.57;2.60;;;24.20;97.20;;;;;;1714234;28;20434;-71
2022/07/18 08:00:40;;;;;;;4.90;2.23;;;24.20;97.20;;;;;;1714164;28;20460;-71
2022/07/18 08:01:31;;;;;;;2.80;2.17;;;24.30;97.20;;;;;;1714104;28;20445;-71
2022/07/18 08:02:23;;;;;;;2.53;2.10;;;24.30;97.20;;;;;;1714138;28;20445;-71
2022/07/18 08:03:14;;;;;;;2.53;2.30;;;24.30;97.20;;;;;;1714190;28;20213;-70
2022/07/18 08:04:05;;;;;;;4.90;2.50;;;24.40;97.20;;;;;;1714068;28;20281;-70
2022/07/18 08:04:56;;;;;;;5.53;2.43;;;24.40;97.20;;;;;;1713633;28;20461;-71
2022/07/18 08:05:50;;;;;;;2.20;2.00;;;24.40;97.20;;;;;;1714088;28;20516;-71
2022/07/18 08:06:42;;;;;;;3.23;1.97;;;24.40;97.20;;;;;;1713577;28;20213;-71
2022/07/18 08:07:34;;;;;;;4.20;2.45;;;24.50;97.20;;;;;;1713710;28;20488;-71
2022/07/18 08:08:25;;;;;;;2.83;2.30;;;24.50;97.20;;;;;;1714127;28;20205;-70
2022/07/18 08:09:17;;;;;;;3.15;2.20;;;24.50;97.20;;;;;;1714134;28;20453;-71
2022/07/18 08:10:08;;;;;;;2.58;2.38;;;24.50;97.20;;;;;;1714040;28;20257;-71
2022/07/18 08:11:00;;;;;;;2.63;2.40;;;24.60;97.20;;;;;;1714135;28;20217;-71
2022/07/18 08:11:51;;;;;;;2.50;2.30;;;24.60;97.20;;;;;;1714138;28;20449;-70
2022/07/18 08:12:43;;;;;;;2.23;2.07;;;24.60;97.20;;;;;;1714157;28;20284;-71
2022/07/18 08:13:33;;;;;;;2.97;2.37;;;24.70;97.20;;;;;;1714067;28;20210;-71
2022/07/18 08:14:27;;;;;;;3.43;2.50;;;24.70;97.20;;;;;;1713994;28;21062;-70
2022/07/18 08:15:19;;;;;;;5.10;2.78;;;24.80;97.20;;;;;;1713765;28;20209;-71
2022/07/18 08:16:10;;;;;;;5.30;2.40;;;24.80;97.20;;;;;;1714018;28;20352;-71
2022/07/18 08:17:01;;;;;;;5.45;2.38;;;24.90;97.20;;;;;;1713760;28;20209;-71
2022/07/18 08:17:53;;;;;;;2.57;2.13;;;24.90;97.20;;;;;;1714002;28;20297;-71
2022/07/18 08:18:44;;;;;;;3.97;2.40;;;25.00;97.20;;;;;;1714097;28;20201;-71
2022/07/18 08:19:36;;;;;;;5.77;2.40;;;25.00;97.20;;;;;;1714019;28;20485;-71
2022/07/18 08:20:27;;;;;;;3.97;2.80;;;25.00;97.20;;;;;;1714096;28;20212;-71
2022/07/18 08:21:19;;;;;;;4.43;2.20;;;25.10;97.20;;;;;;1714014;28;20932;-70
2022/07/18 08:22:11;;;;;;;2.43;2.23;;;25.10;97.20;;;;;;1714054;28;20611;-71
2022/07/18 08:23:07;;;;;;;3.28;2.55;;;25.10;97.20;;;;;;1713994;28;20441;-71
2022/07/18 08:23:58;;;;;;;8.20;2.50;;;25.20;97.20;;;;;;1713884;28;20198;-70
2022/07/18 08:24:50;;;;;;;4.10;2.30;;;25.20;97.20;;;;;;1713979;28;20222;-70
2022/07/18 08:25:44;;;;;;;3.03;2.05;;;25.30;97.20;;;;;;1713984;28;20480;-70
2022/07/18 08:26:38;;;;;;;4.00;2.43;;;25.30;97.20;;;;;;1713637;28;20202;-71
2022/07/18 08:27:30;;;;;;;4.20;2.63;;;25.30;97.20;;;;;;1714028;28;20485;-71
2022/07/18 08:28:21;;;;;;;3.07;2.57;;;25.40;97.20;;;;;;1713916;28;20937;-71
2022/07/18 08:29:13;;;;;;;2.60;2.40;;;25.40;97.20;;;;;;1714050;28;20879;-71
2022/07/18 08:30:04;;;;;;;2.47;2.27;;;25.40;97.20;;;;;;1713656;28;20217;-70
2022/07/18 08:30:56;;;;;;;3.97;2.87;;;25.50;97.20;;;;;;1713929;28;20476;-70
2022/07/18 08:31:47;;;;;;;2.40;2.20;;;25.50;97.20;;;;;;1714080;28;20452;-70
2022/07/18 08:32:38;;;;;;;3.10;2.70;;;25.50;97.20;;;;;;1713899;28;20465;-70
2022/07/18 08:33:29;;;;;;;3.60;2.77;;;25.50;97.20;;;;;;1714060;28;20210;-70
2022/07/18 08:34:21;;;;;;;4.67;2.53;;;25.50;97.20;;;;;;1713861;28;20552;-70
2022/07/18 08:35:12;;;;;;;2.30;2.10;;;25.60;97.20;;;;;;1713896;28;20226;-70
2022/07/18 08:36:04;;;;;;;2.77;2.57;;;25.60;97.20;;;;;;1714027;28;20491;-70
2022/07/18 08:36:55;;;;;;;4.23;2.70;;;25.60;97.20;;;;;;1713730;28;20202;-70
2022/07/18 08:37:48;;;;;;;2.83;2.53;;;25.70;97.20;;;;;;1713976;28;20549;-70
2022/07/18 08:38:41;;;;;;;4.30;2.60;;;25.70;97.20;;;;;;1713853;28;20201;-70
2022/07/18 08:39:33;;;;;;;5.57;2.50;;;25.70;97.20;;;;;;1714007;28;20964;-70
2022/07/18 08:40:25;;;;;;;2.57;2.20;;;25.80;97.20;;;;;;1714002;28;20429;-71
2022/07/18 08:41:17;;;;;;;2.60;2.40;;;25.80;97.20;;;;;;1713841;28;20476;-70
2022/07/18 08:42:09;;;;;;;5.07;2.53;;;25.80;97.20;;;;;;1713987;28;20825;-71
2022/07/18 08:43:02;;;;;;;2.73;2.50;;;25.80;97.20;;;;;;1713929;28;20449;-70
2022/07/18 08:43:53;;;;;;;3.00;2.70;;;25.90;97.20;;;;;;1713945;28;20464;-70
2022/07/18 08:44:45;;;;;;;4.20;2.43;;;25.90;97.20;;;;;;1713851;28;20472;-71
2022/07/18 08:45:36;;;;;;;3.90;2.37;;;25.90;97.20;;;;;;1713614;28;20453;-71
2022/07/18 08:46:30;;;;;;;3.03;2.80;;;25.90;97.20;;;;;;1713922;28;20451;-71
2022/07/18 08:47:23;;;;;;;2.47;2.07;;;25.90;97.20;;;;;;1713674;28;20441;-71
2022/07/18 08:48:15;;;;;;;5.33;2.80;;;26.00;97.20;;;;;;1713855;28;20445;-71
2022/07/18 08:49:06;;;;;;;2.73;2.53;;;26.00;97.20;;;;;;1713891;28;20437;-71
2022/07/18 08:49:58;;;;;;;2.50;2.30;;;26.10;97.20;;;;;;1713807;28;20532;-71
2022/07/18 08:50:50;;;;;;;3.73;2.63;;;26.10;97.20;;;;;;1713915;28;20457;-71
2022/07/18 08:51:43;;;;;;;3.23;3.03;;;26.10;97.20;;;;;;1713927;28;20464;-71
2022/07/18 08:52:36;;;;;;;5.70;2.90;;;26.10;97.20;;;;;;1713911;28;20453;-71
2022/07/18 08:53:30;;;;;;;3.00;2.60;;;26.20;97.20;;;;;;1714016;28;20449;-71
2022/07/18 08:54:21;;;;;;;3.90;2.90;;;26.20;97.20;;;;;;1713684;28;20531;-71
2022/07/18 08:55:15;;;;;;;5.23;2.57;;;26.20;97.20;;;;;;1713879;28;20495;-71
2022/07/18 08:56:06;;;;;;;3.67;2.60;;;26.30;97.20;;;;;;1713909;28;20442;-71
2022/07/18 08:56:58;;;;;;;3.20;2.90;;;26.30;97.20;;;;;;1713607;28;20516;-70
2022/07/18 08:57:49;;;;;;;3.40;2.60;;;26.30;97.20;;;;;;1713883;28;20839;-71
2022/07/18 08:58:40;;;;;;;3.93;2.50;;;26.40;97.20;;;;;;1713830;28;20909;-71
2022/07/18 08:59:31;;;;;;;4.33;2.60;;;26.40;97.20;;;;;;1713911;28;20202;-71
2022/07/18 09:00:23;;;;;;;3.20;2.90;;;26.40;97.20;;;;;;1713550;28;20447;-71
2022/07/18 09:01:14;;;;;;;3.30;2.63;;;26.50;97.20;;;;;;1713769;28;20197;-71
2022/07/18 09:02:07;;;;;;;3.30;2.30;;;26.50;97.20;;;;;;1714091;28;20441;-71
2022/07/18 09:02:59;;;;;;;5.73;2.70;;;26.50;97.20;;;;;;1713857;28;20456;-71
2022/07/18 09:04:56;;;;;;;7.73;2.93;;;26.60;97.20;;;;;;1713690;28;20573;-71
2022/07/18 09:06:02;;;;;;;2.80;2.60;;;26.60;97.20;;;;;;1713790;28;20456;-71
2022/07/18 09:06:54;;;;;;;4.33;2.67;;;26.70;97.20;;;;;;1713709;28;20437;-71
2022/07/18 09:07:45;;;;;;;2.90;2.13;;;26.70;97.20;;;;;;1713914;28;20456;-71
2022/07/18 09:08:40;;;;;;;3.57;2.70;;;26.70;97.20;;;;;;1713886;28;20520;-71
2022/07/18 09:09:32;;;;;;;3.30;2.40;;;26.80;97.20;;;;;;1713912;28;20445;-71
2022/07/18 09:10:24;;;;;;;5.07;2.93;;;26.80;97.20;;;;;;1713733;28;20492;-71
2022/07/18 09:11:14;;;;;;;3.10;2.60;;;26.80;97.20;;;;;;1713860;28;20537;-71
2022/07/18 09:12:09;;;;;;;3.60;2.50;;;26.80;96.70;;;;;;1713920;28;20547;-71
2022/07/18 09:13:01;;;;;;;3.30;2.00;;;26.90;96.70;;;;;;1713867;28;20706;-71
2022/07/18 09:13:53;;;;;;;3.10;2.80;;;26.90;96.00;;;;;;1713875;28;20449;-71
2022/07/18 09:14:44;;;;;;;6.20;2.60;;;26.90;95.90;;;;;;1713608;28;20945;-70
2022/07/18 09:15:57;;;;;;;2.57;2.37;;;26.90;95.70;;;;;;1713752;28;20520;-70
2022/07/18 09:16:59;;;;;;;16.07;2.97;;;27.00;95.30;;;;;;1713305;28;20972;-70
2022/07/18 09:17:51;;;;;;;2.80;2.50;;;27.00;95.30;;;;;;1713786;28;20847;-70
2022/07/18 09:18:44;;;;;;;2.30;2.10;;;27.00;94.90;;;;;;1714870;28;20963;-70
2022/07/18 09:19:37;;;;;;;2.20;2.00;;;27.00;94.00;;;;;;1715209;28;20453;-70
2022/07/18 09:20:27;;;;;;;4.40;2.40;;;27.00;92.90;;;;;;1715191;28;20448;-70
2022/07/18 09:21:21;;;;;;;5.13;2.40;;;27.10;92.60;;;;;;1715104;28;20451;-70
2022/07/18 09:22:14;;;;;;;3.70;2.40;;;27.10;92.10;;;;;;1715187;28;20202;-70
2022/07/18 09:23:13;;;;;;;2.53;2.23;;;27.10;92.30;;;;;;1715168;28;20449;-70
2022/07/18 09:24:05;;;;;;;3.10;2.80;;;27.10;92.70;;;;;;1715213;28;20448;-70
2022/07/18 09:25:06;;;;;;;3.87;2.57;;;27.10;93.40;;;;;;1715192;28;20984;-70
2022/07/18 09:25:57;;;;;;;2.50;2.27;;;27.10;94.10;;;;;;1715177;28;20852;-70
2022/07/18 09:26:50;;;;;;;2.43;2.23;;;27.20;93.60;;;;;;1714947;28;20862;-70
2022/07/18 09:27:42;;;;;;;2.73;2.30;;;27.20;93.70;;;;;;1715180;28;20535;-70
2022/07/18 09:28:48;;;;;;;2.23;2.07;;;27.20;92.80;;;;;;1715088;28;20445;-70
2022/07/18 09:29:40;;;;;;;2.50;2.20;;;27.20;91.60;;;;;;1711974;28;20478;-72
2022/07/18 09:30:35;;;;;;;2.27;2.07;;;27.20;92.10;;;;;;1712065;28;20485;-68
2022/07/18 09:31:26;;;;;;;2.50;2.30;;;27.30;92.40;;;;;;1710931;28;20473;-70